sensor_id;sensor_type;location;lat;lon;timestamp;pressure;altitude;pressure_sealevel;temperature;humidity
75759;BME280;64371;47.566;19.086;2022-12-20T00:00:12;102343.75;;;-1.51;79.85
75759;BME280;64371;47.566;19.086;2022-12-20T00:03:15;102348.69;;;-1.40;79.42
75759;BME280;64371;47.566;19.086;2022-12-20T00:06:19;102350.31;;;-1.39;79.51
75759;BME280;64371;47.566;19.086;2022-12-20T00:09:21;102354.22;;;-1.35;79.45
75759;BME280;64371;47.566;19.086;2022-12-20T00:12:24;102354.09;;;-1.33;79.83
75759;BME280;64371;47.566;19.086;2022-12-20T00:15:26;102354.44;;;-1.28;79.31
75759;BME280;64371;47.566;19.086;2022-12-20T00:18:28;102353.97;;;-1.24;79.47
75759;BME280;64371;47.566;19.086;2022-12-20T00:21:34;102354.34;;;-1.19;79.21
75759;BME280;64371;47.566;19.086;2022-12-20T00:24:37;102355.81;;;-1.16;79.19
75759;BME280;64371;47.566;19.086;2022-12-20T00:27:39;102349.19;;;-1.11;78.93
75759;BME280;64371;47.566;19.086;2022-12-20T00:30:41;102337.25;;;-1.04;79.10
75759;BME280;64371;47.566;19.086;2022-12-20T00:33:47;102344.06;;;-1.03;79.04
75759;BME280;64371;47.566;19.086;2022-12-20T00:36:50;102341.31;;;-1.01;78.75
75759;BME280;64371;47.566;19.086;2022-12-20T00:39:54;102336.78;;;-0.99;78.91
75759;BME280;64371;47.566;19.086;2022-12-20T00:42:56;102334.06;;;-0.98;78.48
75759;BME280;64371;47.566;19.086;2022-12-20T00:45:59;102330.00;;;-1.00;78.30
75759;BME280;64371;47.566;19.086;2022-12-20T00:49:02;102327.13;;;-0.97;78.52
75759;BME280;64371;47.566;19.086;2022-12-20T00:52:05;102307.19;;;-0.97;78.31
75759;BME280;64371;47.566;19.086;2022-12-20T00:55:08;102300.53;;;-0.99;77.92
75759;BME280;64371;47.566;19.086;2022-12-20T00:58:11;102289.41;;;-1.00;77.84
75759;BME280;64371;47.566;19.086;2022-12-20T01:01:25;102303.00;;;-0.98;78.06
75759;BME280;64371;47.566;19.086;2022-12-20T01:04:28;102301.22;;;-0.97;77.97
75759;BME280;64371;47.566;19.086;2022-12-20T01:07:31;102306.59;;;-0.91;78.32
75759;BME280;64371;47.566;19.086;2022-12-20T01:10:34;102297.56;;;-0.79;77.46
75759;BME280;64371;47.566;19.086;2022-12-20T01:13:43;102297.88;;;-0.82;76.75
75759;BME280;64371;47.566;19.086;2022-12-20T01:16:49;102290.75;;;-0.80;76.74
75759;BME280;64371;47.566;19.086;2022-12-20T01:19:51;102304.94;;;-0.92;77.66
75759;BME280;64371;47.566;19.086;2022-12-20T01:22:54;102304.28;;;-1.02;78.83
75759;BME280;64371;47.566;19.086;2022-12-20T01:26:07;102299.91;;;-1.01;78.70
75759;BME280;64371;47.566;19.086;2022-12-20T01:29:15;102284.84;;;-1.06;78.25
75759;BME280;64371;47.566;19.086;2022-12-20T01:32:21;102270.94;;;-0.97;77.88
75759;BME280;64371;47.566;19.086;2022-12-20T01:35:27;102269.38;;;-0.90;77.73
75759;BME280;64371;47.566;19.086;2022-12-20T01:38:31;102257.50;;;-1.08;78.57
75759;BME280;64371;47.566;19.086;2022-12-20T01:41:37;102251.47;;;-1.17;78.51
75759;BME280;64371;47.566;19.086;2022-12-20T01:47:57;102248.31;;;-1.03;78.18
75759;BME280;64371;47.566;19.086;2022-12-20T01:51:03;102240.84;;;-1.14;78.23
75759;BME280;64371;47.566;19.086;2022-12-20T01:54:45;102231.94;;;-1.03;78.38
75759;BME280;64371;47.566;19.086;2022-12-20T02:02:34;102211.56;;;-1.06;78.83
75759;BME280;64371;47.566;19.086;2022-12-20T02:11:16;102209.16;;;-1.00;78.34
75759;BME280;64371;47.566;19.086;2022-12-20T02:36:34;102199.44;;;-1.14;78.70
75759;BME280;64371;47.566;19.086;2022-12-20T02:45:30;102202.41;;;-1.35;79.29
75759;BME280;64371;47.566;19.086;2022-12-20T02:49:30;102194.34;;;-1.23;79.59
75759;BME280;64371;47.566;19.086;2022-12-20T03:01:37;102156.75;;;-1.02;78.21
75759;BME280;64371;47.566;19.086;2022-12-20T03:05:46;102158.56;;;-0.86;78.09
75759;BME280;64371;47.566;19.086;2022-12-20T03:09:26;102151.91;;;-0.89;77.11
75759;BME280;64371;47.566;19.086;2022-12-20T03:14:17;102144.66;;;-0.85;77.54
75759;BME280;64371;47.566;19.086;2022-12-20T03:18:22;102155.03;;;-0.61;76.46
75759;BME280;64371;47.566;19.086;2022-12-20T03:26:07;102148.69;;;-0.67;76.26
75759;BME280;64371;47.566;19.086;2022-12-20T03:29:37;102136.22;;;-0.55;76.42
75759;BME280;64371;47.566;19.086;2022-12-20T03:32:47;102150.16;;;-0.64;76.05
75759;BME280;64371;47.566;19.086;2022-12-20T03:36:01;102161.00;;;-0.69;76.23
75759;BME280;64371;47.566;19.086;2022-12-20T03:42:59;102157.09;;;-0.89;77.05
75759;BME280;64371;47.566;19.086;2022-12-20T03:46:21;102147.69;;;-1.06;77.97
75759;BME280;64371;47.566;19.086;2022-12-20T03:49:53;102134.25;;;-1.01;78.17
75759;BME280;64371;47.566;19.086;2022-12-20T03:53:32;102139.47;;;-0.85;77.66
75759;BME280;64371;47.566;19.086;2022-12-20T03:57:01;102138.16;;;-0.89;77.45
75759;BME280;64371;47.566;19.086;2022-12-20T04:00:20;102133.94;;;-0.98;77.84
75759;BME280;64371;47.566;19.086;2022-12-20T04:03:59;102121.81;;;-0.98;77.88
75759;BME280;64371;47.566;19.086;2022-12-20T04:07:32;102122.31;;;-0.78;76.65
75759;BME280;64371;47.566;19.086;2022-12-20T04:11:09;102121.84;;;-0.90;77.59
75759;BME280;64371;47.566;19.086;2022-12-20T04:14:48;102107.41;;;-0.84;77.37
75759;BME280;64371;47.566;19.086;2022-12-20T04:18:00;102100.47;;;-0.76;76.63
75759;BME280;64371;47.566;19.086;2022-12-20T04:22:05;102098.66;;;-0.99;77.86
75759;BME280;64371;47.566;19.086;2022-12-20T04:25:27;102101.25;;;-0.99;77.79
75759;BME280;64371;47.566;19.086;2022-12-20T04:36:36;102101.94;;;-0.81;76.88
75759;BME280;64371;47.566;19.086;2022-12-20T04:40:51;102101.94;;;-0.81;77.00
75759;BME280;64371;47.566;19.086;2022-12-20T04:44:30;102099.50;;;-0.75;76.75
75759;BME280;64371;47.566;19.086;2022-12-20T04:48:05;102096.59;;;-0.63;76.19
75759;BME280;64371;47.566;19.086;2022-12-20T04:52:01;102101.91;;;-0.65;76.19
75759;BME280;64371;47.566;19.086;2022-12-20T04:55:24;102113.59;;;-0.61;76.00
75759;BME280;64371;47.566;19.086;2022-12-20T04:58:27;102119.91;;;-0.63;76.19
75759;BME280;64371;47.566;19.086;2022-12-20T05:01:29;102111.78;;;-0.77;76.15
75759;BME280;64371;47.566;19.086;2022-12-20T05:04:32;102112.44;;;-0.75;76.15
75759;BME280;64371;47.566;19.086;2022-12-20T05:07:39;102113.91;;;-0.80;76.83
75759;BME280;64371;47.566;19.086;2022-12-20T05:10:41;102118.59;;;-0.76;76.97
75759;BME280;64371;47.566;19.086;2022-12-20T05:13:44;102120.38;;;-0.92;76.83
75759;BME280;64371;47.566;19.086;2022-12-20T05:16:47;102124.44;;;-0.90;77.61
75759;BME280;64371;47.566;19.086;2022-12-20T05:19:50;102131.72;;;-0.85;77.38
75759;BME280;64371;47.566;19.086;2022-12-20T05:22:54;102135.56;;;-0.89;77.22
75759;BME280;64371;47.566;19.086;2022-12-20T05:26:18;102123.75;;;-0.92;77.22
75759;BME280;64371;47.566;19.086;2022-12-20T05:29:22;102119.84;;;-1.04;78.10
75759;BME280;64371;47.566;19.086;2022-12-20T05:32:25;102137.00;;;-1.03;78.43
75759;BME280;64371;47.566;19.086;2022-12-20T05:35:28;102130.41;;;-0.97;77.75
75759;BME280;64371;47.566;19.086;2022-12-20T05:38:38;102131.34;;;-0.98;77.67
75759;BME280;64371;47.566;19.086;2022-12-20T05:41:46;102137.31;;;-1.14;78.36
75759;BME280;64371;47.566;19.086;2022-12-20T05:44:49;102130.88;;;-1.02;77.99
75759;BME280;64371;47.566;19.086;2022-12-20T05:47:51;102131.47;;;-1.16;78.20
75759;BME280;64371;47.566;19.086;2022-12-20T05:50:53;102123.44;;;-1.05;77.70
75759;BME280;64371;47.566;19.086;2022-12-20T05:54:01;102114.50;;;-1.10;77.95
75759;BME280;64371;47.566;19.086;2022-12-20T05:57:22;102107.09;;;-0.89;77.41
75759;BME280;64371;47.566;19.086;2022-12-20T06:00:24;102106.44;;;-0.99;77.34
75759;BME280;64371;47.566;19.086;2022-12-20T06:03:27;102092.84;;;-1.09;78.31
75759;BME280;64371;47.566;19.086;2022-12-20T06:06:30;102077.16;;;-1.08;78.49
75759;BME280;64371;47.566;19.086;2022-12-20T06:09:33;102078.31;;;-1.02;78.16
75759;BME280;64371;47.566;19.086;2022-12-20T06:12:40;102079.09;;;-0.94;77.87
75759;BME280;64371;47.566;19.086;2022-12-20T06:15:43;102085.88;;;-0.85;77.15
75759;BME280;64371;47.566;19.086;2022-12-20T06:18:45;102085.22;;;-1.11;78.17
75759;BME280;64371;47.566;19.086;2022-12-20T06:21:48;102089.28;;;-1.16;78.71
75759;BME280;64371;47.566;19.086;2022-12-20T06:24:54;102083.94;;;-1.15;78.27
75759;BME280;64371;47.566;19.086;2022-12-20T06:28:01;102089.75;;;-1.29;79.36
75759;BME280;64371;47.566;19.086;2022-12-20T06:31:04;102071.44;;;-1.36;79.28
75759;BME280;64371;47.566;19.086;2022-12-20T06:34:16;102078.06;;;-1.33;79.59
75759;BME280;64371;47.566;19.086;2022-12-20T06:37:20;102066.47;;;-1.21;78.64
75759;BME280;64371;47.566;19.086;2022-12-20T06:40:22;102077.81;;;-1.06;78.22
75759;BME280;64371;47.566;19.086;2022-12-20T06:43:25;102050.97;;;-1.05;78.76
75759;BME280;64371;47.566;19.086;2022-12-20T06:46:28;102055.00;;;-1.10;78.66
75759;BME280;64371;47.566;19.086;2022-12-20T06:49:31;102057.44;;;-0.93;77.96
75759;BME280;64371;47.566;19.086;2022-12-20T06:52:35;102052.09;;;-0.83;77.70
75759;BME280;64371;47.566;19.086;2022-12-20T06:55:38;102048.03;;;-0.70;76.92
75759;BME280;64371;47.566;19.086;2022-12-20T06:58:41;102047.56;;;-0.73;76.93
75759;BME280;64371;47.566;19.086;2022-12-20T07:01:43;102048.84;;;-0.69;76.50
75759;BME280;64371;47.566;19.086;2022-12-20T07:04:49;102047.53;;;-0.57;76.71
75759;BME280;64371;47.566;19.086;2022-12-20T07:08:00;102048.66;;;-0.51;75.19
75759;BME280;64371;47.566;19.086;2022-12-20T07:11:05;102048.63;;;-0.27;74.53
75759;BME280;64371;47.566;19.086;2022-12-20T07:14:08;102056.03;;;-0.24;74.32
75759;BME280;64371;47.566;19.086;2022-12-20T07:17:11;102060.88;;;-0.21;74.81
75759;BME280;64371;47.566;19.086;2022-12-20T07:20:13;102049.38;;;-0.11;73.59
75759;BME280;64371;47.566;19.086;2022-12-20T07:23:16;102054.84;;;-0.06;73.53
75759;BME280;64371;47.566;19.086;2022-12-20T07:26:20;102051.22;;;0.12;72.87
75759;BME280;64371;47.566;19.086;2022-12-20T07:29:23;102054.16;;;0.09;72.86
75759;BME280;64371;47.566;19.086;2022-12-20T07:32:27;102075.22;;;0.06;72.37
75759;BME280;64371;47.566;19.086;2022-12-20T07:35:29;102069.38;;;0.12;72.59
75759;BME280;64371;47.566;19.086;2022-12-20T07:38:32;102044.53;;;0.17;72.69
75759;BME280;64371;47.566;19.086;2022-12-20T07:41:35;102061.81;;;0.33;72.04
75759;BME280;64371;47.566;19.086;2022-12-20T07:44:38;102063.91;;;0.37;71.72
75759;BME280;64371;47.566;19.086;2022-12-20T07:47:40;102063.53;;;0.71;70.73
75759;BME280;64371;47.566;19.086;2022-12-20T07:50:44;102061.34;;;1.28;67.74
75759;BME280;64371;47.566;19.086;2022-12-20T07:53:50;102065.78;;;1.57;67.40
75759;BME280;64371;47.566;19.086;2022-12-20T07:56:58;102043.81;;;1.74;65.64
75759;BME280;64371;47.566;19.086;2022-12-20T08:00:11;102053.66;;;1.49;66.22
75759;BME280;64371;47.566;19.086;2022-12-20T08:03:23;102057.88;;;1.13;68.01
75759;BME280;64371;47.566;19.086;2022-12-20T08:06:28;102048.03;;;0.86;69.07
75759;BME280;64371;47.566;19.086;2022-12-20T08:09:35;102026.91;;;0.66;69.51
75759;BME280;64371;47.566;19.086;2022-12-20T08:12:39;102034.00;;;0.49;70.14
75759;BME280;64371;47.566;19.086;2022-12-20T08:15:42;102021.22;;;0.48;70.52
75759;BME280;64371;47.566;19.086;2022-12-20T08:18:52;102018.13;;;0.44;70.55
75759;BME280;64371;47.566;19.086;2022-12-20T08:21:55;102015.09;;;0.41;70.66
75759;BME280;64371;47.566;19.086;2022-12-20T08:25:00;102014.28;;;0.40;70.46
75759;BME280;64371;47.566;19.086;2022-12-20T08:28:03;102010.69;;;0.41;70.73
75759;BME280;64371;47.566;19.086;2022-12-20T08:31:07;102028.81;;;0.95;69.08
75759;BME280;64371;47.566;19.086;2022-12-20T08:34:10;102018.06;;;2.44;64.03
75759;BME280;64371;47.566;19.086;2022-12-20T08:37:17;102021.59;;;3.55;59.79
75759;BME280;64371;47.566;19.086;2022-12-20T08:40:20;102020.19;;;4.00;58.22
75759;BME280;64371;47.566;19.086;2022-12-20T08:43:22;102030.19;;;4.37;56.75
75759;BME280;64371;47.566;19.086;2022-12-20T08:46:25;102016.56;;;4.55;55.83
75759;BME280;64371;47.566;19.086;2022-12-20T08:49:27;102017.56;;;4.60;55.48
75759;BME280;64371;47.566;19.086;2022-12-20T08:52:30;102010.78;;;4.86;54.66
75759;BME280;64371;47.566;19.086;2022-12-20T08:55:33;102012.78;;;4.84;54.31
75759;BME280;64371;47.566;19.086;2022-12-20T08:58:37;102009.75;;;4.80;53.83
75759;BME280;64371;47.566;19.086;2022-12-20T09:01:40;102018.41;;;5.07;53.39
75759;BME280;64371;47.566;19.086;2022-12-20T09:04:43;102013.59;;;5.30;52.90
75759;BME280;64371;47.566;19.086;2022-12-20T09:07:46;101999.88;;;5.41;51.77
75759;BME280;64371;47.566;19.086;2022-12-20T09:10:48;102003.63;;;5.65;51.23
75759;BME280;64371;47.566;19.086;2022-12-20T09:13:56;102016.50;;;5.86;51.00
75759;BME280;64371;47.566;19.086;2022-12-20T09:16:58;102019.00;;;6.06;50.44
75759;BME280;64371;47.566;19.086;2022-12-20T09:20:00;102016.06;;;5.89;49.96
75759;BME280;64371;47.566;19.086;2022-12-20T09:23:03;102005.72;;;5.36;50.83
75759;BME280;64371;47.566;19.086;2022-12-20T09:26:09;102000.09;;;4.87;52.44
75759;BME280;64371;47.566;19.086;2022-12-20T09:29:12;101991.84;;;5.29;52.23
75759;BME280;64371;47.566;19.086;2022-12-20T09:32:18;101999.81;;;5.74;50.11
75759;BME280;64371;47.566;19.086;2022-12-20T09:35:20;101982.63;;;5.20;51.48
75759;BME280;64371;47.566;19.086;2022-12-20T09:38:26;101984.53;;;5.58;51.16
75759;BME280;64371;47.566;19.086;2022-12-20T09:41:40;101959.09;;;5.07;52.21
75759;BME280;64371;47.566;19.086;2022-12-20T09:44:42;101963.94;;;4.97;51.97
75759;BME280;64371;47.566;19.086;2022-12-20T09:47:45;101963.13;;;5.10;51.80
75759;BME280;64371;47.566;19.086;2022-12-20T09:51:10;101963.66;;;5.45;51.13
75759;BME280;64371;47.566;19.086;2022-12-20T09:54:39;101955.94;;;5.63;51.45
75759;BME280;64371;47.566;19.086;2022-12-20T09:57:51;101952.88;;;6.23;48.79
75759;BME280;64371;47.566;19.086;2022-12-20T10:00:55;101950.78;;;6.38;49.02
75759;BME280;64371;47.566;19.086;2022-12-20T10:04:03;101944.00;;;5.86;49.98
75759;BME280;64371;47.566;19.086;2022-12-20T10:27:26;101912.06;;;6.40;48.79
75759;BME280;64371;47.566;19.086;2022-12-20T10:30:28;101914.03;;;7.49;45.63
75759;BME280;64371;47.566;19.086;2022-12-20T10:33:33;101895.97;;;7.22;45.16
75759;BME280;64371;47.566;19.086;2022-12-20T10:36:36;101889.44;;;7.13;45.92
75759;BME280;64371;47.566;19.086;2022-12-20T10:39:41;101895.38;;;6.84;46.51
75759;BME280;64371;47.566;19.086;2022-12-20T10:42:44;101888.66;;;7.61;45.04
75759;BME280;64371;47.566;19.086;2022-12-20T10:46:06;101887.59;;;7.50;44.99
75759;BME280;64371;47.566;19.086;2022-12-20T10:49:30;101897.06;;;7.15;45.91
75759;BME280;64371;47.566;19.086;2022-12-20T10:52:33;101866.50;;;5.41;49.84
75759;BME280;64371;47.566;19.086;2022-12-20T10:55:38;101855.03;;;4.13;54.57
75759;BME280;64371;47.566;19.086;2022-12-20T10:58:40;101859.13;;;3.55;56.56
75759;BME280;64371;47.566;19.086;2022-12-20T11:01:45;101846.59;;;3.30;57.66
75759;BME280;64371;47.566;19.086;2022-12-20T11:08:16;101848.63;;;2.94;59.13
75759;BME280;64371;47.566;19.086;2022-12-20T11:11:59;101840.06;;;3.00;58.41
75759;BME280;64371;47.566;19.086;2022-12-20T11:15:31;101846.09;;;3.61;57.91
75759;BME280;64371;47.566;19.086;2022-12-20T11:18:42;101840.78;;;4.41;54.74
75759;BME280;64371;47.566;19.086;2022-12-20T11:35:47;101798.78;;;4.69;53.71
75759;BME280;64371;47.566;19.086;2022-12-20T11:49:17;101788.94;;;4.64;54.06
75759;BME280;64371;47.566;19.086;2022-12-20T11:52:38;101777.94;;;4.49;53.81
75759;BME280;64371;47.566;19.086;2022-12-20T11:55:46;101793.00;;;4.34;54.29
75759;BME280;64371;47.566;19.086;2022-12-20T11:59:04;101796.84;;;4.38;54.99
75759;BME280;64371;47.566;19.086;2022-12-20T12:02:12;101778.75;;;4.50;54.24
75759;BME280;64371;47.566;19.086;2022-12-20T12:05:19;101785.53;;;4.64;54.20
75759;BME280;64371;47.566;19.086;2022-12-20T12:08:31;101768.47;;;4.61;53.61
75759;BME280;64371;47.566;19.086;2022-12-20T12:11:43;101771.47;;;4.72;53.20
75759;BME280;64371;47.566;19.086;2022-12-20T12:18:34;101765.91;;;3.96;55.78
75759;BME280;64371;47.566;19.086;2022-12-20T12:21:40;101774.75;;;3.82;56.20
75759;BME280;64371;47.566;19.086;2022-12-20T12:24:48;101764.50;;;3.74;56.42
75759;BME280;64371;47.566;19.086;2022-12-20T12:27:53;101760.09;;;3.68;57.27
75759;BME280;64371;47.566;19.086;2022-12-20T12:31:12;101766.50;;;3.65;57.46
75759;BME280;64371;47.566;19.086;2022-12-20T12:47:23;101733.78;;;3.43;57.63
75759;BME280;64371;47.566;19.086;2022-12-20T12:50:45;101738.78;;;3.38;58.42
75759;BME280;64371;47.566;19.086;2022-12-20T12:53:51;101729.97;;;3.46;58.50
75759;BME280;64371;47.566;19.086;2022-12-20T12:57:01;101741.56;;;3.30;58.20
75759;BME280;64371;47.566;19.086;2022-12-20T13:00:47;101745.19;;;3.29;58.23
75759;BME280;64371;47.566;19.086;2022-12-20T13:07:00;101733.13;;;3.21;58.46
75759;BME280;64371;47.566;19.086;2022-12-20T13:13:21;101717.91;;;3.31;58.85
75759;BME280;64371;47.566;19.086;2022-12-20T13:16:27;101728.56;;;3.37;58.51
75759;BME280;64371;47.566;19.086;2022-12-20T13:19:53;101714.22;;;3.06;58.87
75759;BME280;64371;47.566;19.086;2022-12-20T13:23:22;101714.97;;;2.87;60.06
75759;BME280;64371;47.566;19.086;2022-12-20T13:26:52;101712.56;;;2.86;60.49
75759;BME280;64371;47.566;19.086;2022-12-20T13:33:20;101708.38;;;2.91;60.03
75759;BME280;64371;47.566;19.086;2022-12-20T13:36:35;101697.72;;;2.80;60.67
75759;BME280;64371;47.566;19.086;2022-12-20T13:39:39;101705.72;;;2.78;60.67
75759;BME280;64371;47.566;19.086;2022-12-20T13:42:42;101712.75;;;2.84;60.68
75759;BME280;64371;47.566;19.086;2022-12-20T13:46:39;101716.53;;;2.75;62.64
75759;BME280;64371;47.566;19.086;2022-12-20T13:49:39;101702.22;;;2.58;64.17
75759;BME280;64371;47.566;19.086;2022-12-20T13:52:42;101702.56;;;2.42;65.01
75759;BME280;64371;47.566;19.086;2022-12-20T13:55:46;101696.22;;;2.23;65.70
75759;BME280;64371;47.566;19.086;2022-12-20T13:58:49;101696.38;;;2.15;66.42
75759;BME280;64371;47.566;19.086;2022-12-20T14:01:55;101682.13;;;2.11;67.36
75759;BME280;64371;47.566;19.086;2022-12-20T14:05:01;101673.13;;;2.07;66.89
75759;BME280;64371;47.566;19.086;2022-12-20T14:08:09;101666.50;;;2.05;66.66
75759;BME280;64371;47.566;19.086;2022-12-20T14:11:20;101662.56;;;2.15;66.49
75759;BME280;64371;47.566;19.086;2022-12-20T14:14:28;101674.19;;;2.19;66.20
75759;BME280;64371;47.566;19.086;2022-12-20T14:17:31;101663.06;;;1.97;66.86
75759;BME280;64371;47.566;19.086;2022-12-20T14:20:35;101665.78;;;1.89;67.59
75759;BME280;64371;47.566;19.086;2022-12-20T14:23:45;101659.56;;;1.84;67.04
75759;BME280;64371;47.566;19.086;2022-12-20T14:26:54;101656.66;;;1.72;67.93
75759;BME280;64371;47.566;19.086;2022-12-20T14:29:57;101654.06;;;1.72;67.79
75759;BME280;64371;47.566;19.086;2022-12-20T14:33:01;101654.06;;;1.72;67.92
75759;BME280;64371;47.566;19.086;2022-12-20T14:39:27;101646.34;;;1.58;68.56
75759;BME280;64371;47.566;19.086;2022-12-20T14:42:35;101641.59;;;1.61;68.26
75759;BME280;64371;47.566;19.086;2022-12-20T14:45:37;101648.34;;;1.56;68.48
75759;BME280;64371;47.566;19.086;2022-12-20T14:48:40;101644.16;;;1.55;68.39
75759;BME280;64371;47.566;19.086;2022-12-20T14:51:42;101648.16;;;1.36;69.91
75759;BME280;64371;47.566;19.086;2022-12-20T14:54:48;101643.91;;;1.28;70.75
75759;BME280;64371;47.566;19.086;2022-12-20T14:58:29;101644.78;;;1.14;71.64
75759;BME280;64371;47.566;19.086;2022-12-20T15:01:32;101637.91;;;1.07;71.77
75759;BME280;64371;47.566;19.086;2022-12-20T15:04:42;101648.28;;;1.07;72.11
75759;BME280;64371;47.566;19.086;2022-12-20T15:07:45;101644.16;;;1.12;71.72
75759;BME280;64371;47.566;19.086;2022-12-20T15:10:53;101647.13;;;1.09;72.39
75759;BME280;64371;47.566;19.086;2022-12-20T15:13:56;101644.47;;;1.03;72.62
75759;BME280;64371;47.566;19.086;2022-12-20T15:17:00;101653.63;;;0.99;72.79
75759;BME280;64371;47.566;19.086;2022-12-20T15:20:02;101634.94;;;0.89;73.09
75759;BME280;64371;47.566;19.086;2022-12-20T15:23:17;101634.44;;;0.79;73.71
75759;BME280;64371;47.566;19.086;2022-12-20T15:26:27;101633.34;;;0.73;74.02
75759;BME280;64371;47.566;19.086;2022-12-20T15:29:32;101630.50;;;0.68;74.41
75759;BME280;64371;47.566;19.086;2022-12-20T15:32:34;101642.84;;;0.66;74.39
75759;BME280;64371;47.566;19.086;2022-12-20T15:35:37;101654.41;;;0.63;74.69
75759;BME280;64371;47.566;19.086;2022-12-20T15:38:39;101647.63;;;0.62;74.33
75759;BME280;64371;47.566;19.086;2022-12-20T15:42:02;101658.16;;;0.61;74.74
75759;BME280;64371;47.566;19.086;2022-12-20T15:45:06;101663.75;;;0.58;74.61
75759;BME280;64371;47.566;19.086;2022-12-20T15:48:14;101665.88;;;0.54;75.06
75759;BME280;64371;47.566;19.086;2022-12-20T15:51:23;101654.06;;;0.52;75.29
75759;BME280;64371;47.566;19.086;2022-12-20T15:54:33;101657.63;;;0.51;75.15
75759;BME280;64371;47.566;19.086;2022-12-20T15:57:36;101657.84;;;0.49;75.44
75759;BME280;64371;47.566;19.086;2022-12-20T16:00:39;101650.50;;;0.53;75.56
75759;BME280;64371;47.566;19.086;2022-12-20T16:03:42;101643.06;;;0.64;75.07
75759;BME280;64371;47.566;19.086;2022-12-20T16:06:47;101647.94;;;0.74;75.05
75759;BME280;64371;47.566;19.086;2022-12-20T16:09:50;101645.72;;;0.71;75.05
75759;BME280;64371;47.566;19.086;2022-12-20T16:12:52;101656.19;;;0.63;74.97
75759;BME280;64371;47.566;19.086;2022-12-20T16:15:56;101659.53;;;0.57;75.76
75759;BME280;64371;47.566;19.086;2022-12-20T16:18:59;101649.97;;;0.57;75.63
75759;BME280;64371;47.566;19.086;2022-12-20T16:22:02;101653.78;;;0.61;75.88
75759;BME280;64371;47.566;19.086;2022-12-20T16:25:05;101653.25;;;0.66;75.39
75759;BME280;64371;47.566;19.086;2022-12-20T16:28:07;101640.25;;;0.66;75.82
75759;BME280;64371;47.566;19.086;2022-12-20T16:31:22;101642.69;;;0.68;75.67
75759;BME280;64371;47.566;19.086;2022-12-20T16:34:25;101649.47;;;0.68;75.82
75759;BME280;64371;47.566;19.086;2022-12-20T16:37:28;101642.44;;;0.62;76.35
75759;BME280;64371;47.566;19.086;2022-12-20T16:40:36;101635.00;;;0.59;76.68
75759;BME280;64371;47.566;19.086;2022-12-20T16:43:39;101630.53;;;0.53;77.54
75759;BME280;64371;47.566;19.086;2022-12-20T16:46:42;101641.16;;;0.58;76.74
75759;BME280;64371;47.566;19.086;2022-12-20T16:49:44;101636.69;;;0.67;77.03
75759;BME280;64371;47.566;19.086;2022-12-20T16:52:54;101621.97;;;0.53;77.46
75759;BME280;64371;47.566;19.086;2022-12-20T16:55:56;101625.00;;;0.56;77.48
75759;BME280;64371;47.566;19.086;2022-12-20T16:58:58;101620.13;;;0.68;77.44
75759;BME280;64371;47.566;19.086;2022-12-20T17:02:25;101606.88;;;0.63;77.30
75759;BME280;64371;47.566;19.086;2022-12-20T17:05:31;101603.31;;;0.64;77.60
75759;BME280;64371;47.566;19.086;2022-12-20T17:08:33;101605.31;;;0.62;77.52
75759;BME280;64371;47.566;19.086;2022-12-20T17:11:53;101609.63;;;0.55;77.64
75759;BME280;64371;47.566;19.086;2022-12-20T17:14:55;101600.50;;;0.44;78.00
75759;BME280;64371;47.566;19.086;2022-12-20T17:17:58;101607.44;;;0.58;77.89
75759;BME280;64371;47.566;19.086;2022-12-20T17:21:02;101612.56;;;0.52;77.83
75759;BME280;64371;47.566;19.086;2022-12-20T17:24:15;101608.00;;;0.54;77.96
75759;BME280;64371;47.566;19.086;2022-12-20T17:27:19;101608.34;;;0.51;78.24
75759;BME280;64371;47.566;19.086;2022-12-20T17:30:23;101601.94;;;0.47;78.57
75759;BME280;64371;47.566;19.086;2022-12-20T17:33:25;101606.13;;;0.48;78.18
75759;BME280;64371;47.566;19.086;2022-12-20T17:36:28;101616.94;;;0.51;78.00
75759;BME280;64371;47.566;19.086;2022-12-20T17:39:38;101610.78;;;0.52;78.17
75759;BME280;64371;47.566;19.086;2022-12-20T17:42:41;101611.84;;;0.58;77.87
75759;BME280;64371;47.566;19.086;2022-12-20T17:45:43;101601.47;;;0.58;77.85
75759;BME280;64371;47.566;19.086;2022-12-20T17:48:46;101609.34;;;0.50;78.40
75759;BME280;64371;47.566;19.086;2022-12-20T17:51:50;101600.56;;;0.51;78.46
75759;BME280;64371;47.566;19.086;2022-12-20T17:54:57;101598.72;;;0.45;78.67
75759;BME280;64371;47.566;19.086;2022-12-20T17:57:59;101599.19;;;0.34;79.07
75759;BME280;64371;47.566;19.086;2022-12-20T18:01:02;101599.63;;;0.37;79.20
75759;BME280;64371;47.566;19.086;2022-12-20T18:04:07;101593.34;;;0.46;78.79
75759;BME280;64371;47.566;19.086;2022-12-20T18:07:09;101586.03;;;0.35;78.83
75759;BME280;64371;47.566;19.086;2022-12-20T18:10:12;101585.22;;;0.35;79.41
75759;BME280;64371;47.566;19.086;2022-12-20T18:13:14;101582.19;;;0.46;78.52
75759;BME280;64371;47.566;19.086;2022-12-20T18:16:20;101583.25;;;0.37;78.96
75759;BME280;64371;47.566;19.086;2022-12-20T18:19:22;101576.13;;;0.24;79.49
75759;BME280;64371;47.566;19.086;2022-12-20T18:22:25;101567.97;;;0.27;79.16
75759;BME280;64371;47.566;19.086;2022-12-20T18:25:27;101569.41;;;0.30;79.14
75759;BME280;64371;47.566;19.086;2022-12-20T18:28:31;101558.97;;;0.23;79.65
75759;BME280;64371;47.566;19.086;2022-12-20T18:31:34;101557.19;;;0.24;79.21
75759;BME280;64371;47.566;19.086;2022-12-20T18:34:36;101554.88;;;0.14;80.24
75759;BME280;64371;47.566;19.086;2022-12-20T18:37:38;101545.81;;;0.10;79.77
75759;BME280;64371;47.566;19.086;2022-12-20T18:40:44;101542.06;;;0.13;79.87
75759;BME280;64371;47.566;19.086;2022-12-20T18:43:46;101538.72;;;0.33;79.11
75759;BME280;64371;47.566;19.086;2022-12-20T18:46:49;101522.19;;;0.20;78.92